Aurora, Missouri
Current Conditions -  °F | °C
As of 2:55 AM on Monday 24 Nov 2014 (Local Time) from KHFJ Reporting Station
Clear Clear  
Wind Chill: 29°   Ceiling: Unl
Heat Index: 37°   Visibility: 10mi
Dew Point: 32°   Wind: 15mph
Humidity: 81%   Direction: 290°WNW
Pressure: 29.63"   Gusts: 25mph
Location:  36.97°N, 93.72°W
Report Text: KHFJ 240855Z AUTO 29013G22KT 10SM CLR 03/00 A2963 RMK AO2
Loading
Personal Weather Stations






























Interactive Weather Map New forecast layout! Learn more

10-Day Weather Forecast

Advertisements
Track Severe Weather on mobile